Time;durP1;ratioP1;P1;durP2;ratioP2;P2;SDS_P1;SDS_P2;PMS_P1;PMS_P2;Temp;Humidity;BMP_temperature;BMP_pressure;BME280_temperature;BME280_humidity;BME280_pressure;Samples;Min_cycle;Max_cycle;Signal;HPM_P1;HPM_P2
2022/07/04 00:00:34;;;;;;;;;38.00;33.75;;;;;29.93;47.76;99345.47;5092902;28;8869;-74
2022/07/04 00:03:06;;;;;;;;;30.25;29.25;;;;;29.89;47.93;99342.16;5093302;28;8865;-73
2022/07/04 00:05:34;;;;;;;;;35.25;33.00;;;;;29.88;47.86;99337.75;5091171;28;9023;-74
2022/07/04 00:08:04;;;;;;;;;31.25;29.50;;;;;29.89;47.79;99338.63;5090883;28;8835;-73
2022/07/04 00:10:32;;;;;;;;;36.75;32.75;;;;;29.89;47.50;99338.63;5087957;28;8898;-73
2022/07/04 00:13:02;;;;;;;;;37.75;32.75;;;;;29.88;48.04;99345.81;5087974;28;9587;-74
2022/07/04 00:15:31;;;;;;;;;32.25;30.25;;;;;29.88;47.86;99337.75;5087962;28;8858;-72
2022/07/04 00:17:59;;;;;;;;;37.25;33.75;;;;;29.88;47.91;99337.75;5088134;28;8850;-74
2022/07/04 00:20:28;;;;;;;;;36.75;32.25;;;;;29.86;47.84;99333.50;5087778;28;8868;-73
2022/07/04 00:22:56;;;;;;;;;37.75;33.25;;;;;29.80;48.29;99334.88;5087916;28;8938;-74
2022/07/04 00:25:25;;;;;;;;;38.25;33.50;;;;;29.70;48.20;99329.41;5088270;28;8838;-73
2022/07/04 00:27:54;;;;;;;;;38.75;33.50;;;;;29.65;48.41;99322.69;5077415;28;8870;-73
2022/07/04 00:30:24;;;;;;;;;40.50;36.00;;;;;29.63;48.64;99332.72;5093831;28;8950;-74
2022/07/04 00:32:53;;;;;;;;;35.75;32.50;;;;;29.61;48.33;99330.16;5070970;28;8874;-74
2022/07/04 00:35:21;;;;;;;;;38.00;33.25;;;;;29.57;48.63;99334.09;5087868;28;8957;-74
2022/07/04 00:37:50;;;;;;;;;35.00;32.25;;;;;29.47;48.95;99323.25;5087595;28;8919;-72
2022/07/04 00:40:19;;;;;;;;;39.50;34.75;;;;;29.41;49.33;99325.59;5087588;28;8958;-73
2022/07/04 00:42:47;;;;;;;;;34.75;32.25;;;;;29.37;49.27;99324.97;5090147;28;8847;-75
2022/07/04 00:45:16;;;;;;;;;40.00;33.25;;;;;29.35;49.28;99325.09;5090320;28;8862;-74
2022/07/04 00:47:46;;;;;;;;;33.75;32.00;;;;;29.38;49.28;99320.44;5089777;28;9324;-73
2022/07/04 00:50:14;;;;;;;;;37.50;33.50;;;;;29.40;49.56;99311.31;5070995;28;8839;-74
2022/07/04 00:52:43;;;;;;;;;38.25;33.00;;;;;29.39;49.20;99306.91;5089794;28;8855;-72
2022/07/04 00:55:12;;;;;;;;;38.25;33.50;;;;;29.37;49.59;99313.38;5090208;28;8835;-73
2022/07/04 00:57:40;;;;;;;;;34.25;32.25;;;;;29.34;49.51;99311.81;5088314;28;8862;-74
2022/07/04 01:00:10;;;;;;;;;37.75;33.50;;;;;29.33;49.73;99308.25;5089521;28;8839;-73
2022/07/04 01:02:38;;;;;;;;;35.00;32.25;;;;;29.33;49.86;99316.31;5070966;28;8976;-73
2022/07/04 01:05:09;;;;;;;;;37.00;33.50;;;;;29.32;50.03;99306.56;5089822;28;9491;-73
2022/07/04 01:07:38;;;;;;;;;32.25;30.25;;;;;29.32;50.04;99309.25;5087264;28;8852;-73
2022/07/04 01:10:07;;;;;;;;;38.50;34.75;;;;;29.33;49.72;99313.63;5089398;28;9012;-74
2022/07/04 01:12:37;;;;;;;;;38.25;33.50;;;;;29.34;50.02;99306.44;5088410;28;8852;-72
2022/07/04 01:15:07;;;;;;;;;37.25;32.25;;;;;29.33;49.66;99300.19;5070356;28;8844;-73
2022/07/04 01:17:37;;;;;;;;;29.50;28.50;;;;;29.33;49.77;99296.66;5070849;28;8970;-72
2022/07/04 01:20:06;;;;;;;;;36.50;33.00;;;;;29.31;49.90;99304.84;5089325;28;8848;-73
2022/07/04 01:22:36;;;;;;;;;37.50;34.00;;;;;29.32;49.73;99300.31;5089219;28;8832;-72
2022/07/04 01:25:06;;;;;;;;;39.00;33.50;;;;;29.31;50.17;99299.47;5089236;28;8851;-72
2022/07/04 01:27:34;;;;;;;;;35.25;32.00;;;;;29.31;50.09;99294.09;5089103;28;8983;-72
2022/07/04 01:30:03;;;;;;;;;32.75;31.50;;;;;29.30;49.93;99297.78;5089336;28;8832;-73
2022/07/04 01:32:32;;;;;;;;;36.50;33.25;;;;;29.31;50.27;99298.63;5088643;28;8815;-73
2022/07/04 01:35:00;;;;;;;;;36.50;33.00;;;;;29.30;50.03;99288.84;5087613;28;8928;-73
2022/07/04 01:37:29;;;;;;;;;34.00;30.50;;;;;29.31;50.22;99298.63;5089032;28;9715;-74
2022/07/04 01:39:59;;;;;;;;;34.75;32.00;;;;;29.30;50.19;99300.47;5069568;28;9252;-72
2022/07/04 01:42:27;;;;;;;;;34.50;32.00;;;;;29.30;50.18;99295.09;5088949;28;8848;-73
2022/07/04 01:44:56;;;;;;;;;36.75;33.25;;;;;29.30;50.41;99299.59;5087810;28;8905;-73
2022/07/04 01:47:24;;;;;;;;;37.25;34.25;;;;;29.30;50.28;99294.22;5089006;28;8932;-73
2022/07/04 01:49:53;;;;;;;;;37.00;33.25;;;;;29.24;50.73;99294.75;5093399;28;8898;-73
2022/07/04 01:52:22;;;;;;;;;33.25;30.25;;;;;29.23;50.44;99296.56;5072454;28;8882;-72
2022/07/04 01:54:50;;;;;;;;;35.00;32.75;;;;;29.21;50.69;99305.75;5069778;28;8859;-73
2022/07/04 01:57:20;;;;;;;;;40.75;36.50;;;;;29.22;50.78;99307.44;5070375;28;8843;-73
2022/07/04 02:02:36;;;;;;;;;36.00;32.75;;;;;29.19;50.88;99318.41;5088827;28;8856;-73
2022/07/04 02:05:06;;;;;;;;;36.00;33.25;;;;;29.19;50.43;99318.41;5088669;28;8840;-72
2022/07/04 02:07:34;;;;;;;;;40.75;34.00;;;;;29.06;50.87;99319.41;5069892;28;9754;-74
2022/07/04 02:10:04;;;;;;;;;41.50;35.00;;;;;29.02;51.18;99325.13;5088710;28;8864;-74
2022/07/04 02:15:19;;;;;;;;;34.75;32.50;;;;;29.02;51.63;99330.50;5087213;28;8968;-73
2022/07/04 02:17:48;;;;;;;;;42.50;36.00;;;;;28.97;51.59;99321.00;5069652;28;8840;-73
2022/07/04 02:20:17;;;;;;;;;39.75;35.00;;;;;28.97;51.41;99331.72;5088575;28;8872;-74
2022/07/04 02:22:45;;;;;;;;;41.00;35.25;;;;;28.99;51.26;99322.72;5088757;28;9649;-73
2022/07/04 02:25:14;;;;;;;;;40.50;35.75;;;;;28.99;51.64;99328.09;5088374;28;8894;-73
2022/07/04 02:27:43;;;;;;;;;38.75;34.25;;;;;28.97;51.35;99321.00;5088624;28;8859;-73
2022/07/04 02:30:12;;;;;;;;;34.75;31.75;;;;;28.93;51.63;99316.84;5045673;28;8959;-73
2022/07/04 02:32:41;;;;;;;;;31.50;30.50;;;;;28.93;51.85;99324.06;5045944;28;8878;-74
2022/07/04 02:35:11;;;;;;;;;35.50;33.00;;;;;28.90;51.56;99329.66;5045837;28;9581;-72
2022/07/04 02:37:39;;;;;;;;;35.25;33.25;;;;;28.86;51.65;99328.22;5045645;28;8866;-75
2022/07/04 02:40:09;;;;;;;;;33.00;31.75;;;;;28.84;51.96;99332.84;5046119;28;8927;-75
2022/07/04 02:42:38;;;;;;;;;33.00;30.75;;;;;28.84;51.79;99338.22;5046427;28;8842;-73
2022/07/04 02:45:09;;;;;;;;;34.25;32.50;;;;;28.80;52.11;99337.59;5033138;28;8919;-73
2022/07/04 02:47:38;;;;;;;;;36.25;32.50;;;;;28.78;52.14;99339.56;5057090;28;8852;-73
2022/07/04 02:50:07;;;;;;;;;28.75;28.75;;;;;28.68;52.54;99354.69;5092418;28;9678;-73
2022/07/04 02:52:35;;;;;;;;;34.50;30.75;;;;;28.69;52.48;99349.19;5073155;28;8974;-73
2022/07/04 02:55:05;;;;;;;;;34.25;32.25;;;;;28.71;52.66;99346.38;5092063;28;8847;-73
2022/07/04 02:57:37;;;;;;;;;37.25;33.75;;;;;28.65;52.92;99353.09;5091758;28;8840;-73
2022/07/04 03:00:09;;;;;;;;;34.75;31.00;;;;;28.67;52.86;99351.13;5092245;28;8851;-73
2022/07/04 03:02:37;;;;;;;;;37.50;33.00;;;;;28.71;52.90;99349.06;5091837;28;8832;-73
2022/07/04 03:05:06;;;;;;;;;34.50;31.25;;;;;28.73;52.92;99352.47;5092157;28;9604;-72
2022/07/04 03:07:35;;;;;;;;;34.00;31.75;;;;;28.72;52.71;99348.94;5073675;28;8864;-72
2022/07/04 03:10:04;;;;;;;;;38.25;31.75;;;;;28.74;52.90;99357.72;5091882;28;8858;-73
2022/07/04 03:12:32;;;;;;;;;30.75;30.50;;;;;28.77;52.51;99359.31;5091614;28;9024;-73
2022/07/04 03:15:01;;;;;;;;;32.50;30.75;;;;;28.78;52.43;99358.34;5091542;28;8866;-73
2022/07/04 03:17:31;;;;;;;;;39.00;34.50;;;;;28.75;52.83;99355.91;5091537;28;8974;-74
2022/07/04 03:20:00;;;;;;;;;36.50;33.00;;;;;28.75;52.95;99358.59;5072887;28;8827;-73
2022/07/04 03:22:28;;;;;;;;;37.25;32.75;;;;;28.77;52.81;99362.88;5091794;28;8855;-75
2022/07/04 03:24:57;;;;;;;;;34.75;32.50;;;;;28.80;52.58;99356.41;5091793;28;9604;-74
2022/07/04 03:27:25;;;;;;;;;33.25;30.75;;;;;28.83;52.64;99361.53;5091545;28;8864;-73
2022/07/04 03:29:54;;;;;;;;;32.75;30.50;;;;;28.83;52.43;99369.59;5091977;28;8844;-73
2022/07/04 03:32:22;;;;;;;;;36.50;33.50;;;;;28.85;52.47;99369.47;5091745;28;8844;-73
2022/07/04 03:34:52;;;;;;;;;35.50;32.00;;;;;28.77;52.38;99375.41;5056200;28;8855;-72
2022/07/04 03:37:21;;;;;;;;;30.25;28.75;;;;;28.76;52.48;99374.56;5092298;28;8898;-71
2022/07/04 03:39:49;;;;;;;;;36.75;32.00;;;;;28.81;52.69;99384.97;5093252;28;8885;-73
2022/07/04 03:42:18;;;;;;;;;36.50;33.00;;;;;28.85;52.34;99373.00;5093199;28;8888;-73
2022/07/04 03:44:47;;;;;;;;;35.25;31.25;;;;;28.78;52.66;99364.56;5091535;28;8824;-74
2022/07/04 03:47:16;;;;;;;;;36.25;32.75;;;;;28.73;52.94;99372.16;5091359;28;8875;-75
2022/07/04 03:49:44;;;;;;;;;36.50;33.25;;;;;28.77;53.05;99368.25;5090933;28;9003;-72
2022/07/04 03:52:14;;;;;;;;;41.50;36.75;;;;;28.78;52.69;99358.34;5091110;28;8870;-74
2022/07/04 03:54:43;;;;;;;;;47.00;38.00;;;;;28.84;52.66;99363.22;5071250;28;8995;-73
2022/07/04 03:57:12;;;;;;;;;41.00;34.75;;;;;28.85;52.47;99354.22;5091030;28;8874;-73
2022/07/04 03:59:40;;;;;;;;;35.25;32.50;;;;;28.89;52.43;99355.66;5090897;28;8835;-73
2022/07/04 04:02:09;;;;;;;;;39.00;34.25;;;;;28.93;52.16;99362.50;5090758;28;8852;-73
2022/07/04 04:07:25;;;;;;;;;38.25;34.75;;;;;28.73;52.33;99348.00;5091062;28;8862;-73
2022/07/04 04:09:53;;;;;;;;;34.75;32.50;;;;;28.81;51.91;99355.44;5090470;28;8989;-73
2022/07/04 04:12:22;;;;;;;;;36.50;33.25;;;;;28.83;52.08;99352.59;5090619;28;8856;-73
2022/07/04 04:14:50;;;;;;;;;35.00;32.75;;;;;28.72;52.44;99348.94;5091119;28;8982;-72
2022/07/04 04:17:19;;;;;;;;;34.00;31.25;;;;;28.78;52.47;99361.03;5112327;28;8863;-72
2022/07/04 04:19:47;;;;;;;;;35.00;32.00;;;;;28.84;52.19;99362.38;5097478;28;8978;-75
2022/07/04 04:22:16;;;;;;;;;40.25;35.25;;;;;28.87;52.05;99368.34;5094018;28;8835;-73
2022/07/04 04:24:46;;;;;;;;;34.50;32.50;;;;;28.86;52.11;99372.00;5108316;28;8870;-73
2022/07/04 04:27:15;;;;;;;;;34.50;32.00;;;;;28.91;51.96;99371.66;5108169;28;8852;-74
2022/07/04 04:29:43;;;;;;;;;35.75;32.50;;;;;28.96;52.04;99364.06;5107836;28;8967;-71
2022/07/04 04:32:12;;;;;;;;;56.25;46.75;;;;;29.01;51.63;99364.56;5107610;28;8857;-72
2022/07/04 04:34:40;;;;;;;;;42.00;36.25;;;;;28.87;52.10;99357.63;5074548;28;8865;-74
2022/07/04 04:37:09;;;;;;;;;47.25;40.25;;;;;28.95;52.39;99362.38;5074055;28;8864;-73
2022/07/04 04:39:39;;;;;;;;;41.50;35.75;;;;;28.97;51.77;99369.31;5107775;28;8879;-74
2022/07/04 04:42:09;;;;;;;;;39.75;34.50;;;;;29.03;51.74;99367.13;5057904;28;8828;-74
2022/07/04 04:44:37;;;;;;;;;33.50;29.00;;;;;29.06;51.88;99370.44;5107835;28;8940;-73
2022/07/04 04:47:06;;;;;;;;;36.50;32.50;;;;;29.07;51.78;99368.59;5090991;28;8871;-73
2022/07/04 04:49:34;;;;;;;;;37.50;33.25;;;;;29.11;51.50;99368.22;5104374;28;8860;-74
2022/07/04 04:52:05;;;;;;;;;33.50;32.00;;;;;29.21;51.41;99367.53;5089914;28;8840;-73
2022/07/04 04:54:34;;;;;;;;;37.50;33.50;;;;;29.21;50.98;99362.16;5055065;28;8873;-73
2022/07/04 04:57:03;;;;;;;;;34.75;32.25;;;;;29.25;50.96;99366.28;5089392;28;8878;-74
2022/07/04 04:59:34;;;;;;;;;32.25;30.00;;;;;29.19;50.86;99359.59;5089560;28;8870;-73
2022/07/04 05:02:02;;;;;;;;;33.50;31.25;;;;;29.28;50.43;99355.28;5089346;28;8855;-72
2022/07/04 05:04:31;;;;;;;;;37.75;32.00;;;;;29.40;50.48;99356.97;5089661;28;8852;-73
2022/07/04 05:07:00;;;;;;;;;31.50;28.25;;;;;29.54;49.73;99361.22;5088353;28;8908;-74
2022/07/04 05:09:29;;;;;;;;;33.50;31.00;;;;;29.67;49.44;99356.53;5089339;28;8867;-73
2022/07/04 05:11:57;;;;;;;;;35.50;31.25;;;;;29.79;49.25;99357.34;5087602;28;8867;-73
2022/07/04 05:14:28;;;;;;;;;27.50;27.00;;;;;29.74;48.22;99362.28;5070510;28;8863;-73
2022/07/04 05:16:57;;;;;;;;;38.50;33.75;;;;;29.78;48.16;99363.72;5089322;28;8863;-74
2022/07/04 05:19:26;;;;;;;;;31.75;29.75;;;;;29.59;48.73;99369.75;5089328;28;8912;-72
2022/07/04 05:21:55;;;;;;;;;30.00;29.25;;;;;29.26;49.22;99374.22;5089162;28;8924;-72
2022/07/04 05:24:24;;;;;;;;;35.25;32.25;;;;;29.03;50.49;99377.88;5089020;28;8889;-73
2022/07/04 05:26:53;;;;;;;;;33.25;31.00;;;;;28.04;53.00;99390.00;5092560;28;8875;-76
2022/07/04 05:29:26;;;;;;;;;31.25;29.25;;;;;27.88;53.62;99392.94;5097142;28;8867;-77
2022/07/04 05:31:54;;;;;;;;;32.50;30.00;;;;;27.58;54.17;99396.91;5091649;28;8878;-78
2022/07/04 05:34:24;;;;;;;;;38.00;33.00;;;;;27.40;54.83;99391.94;5089828;28;8898;-74
2022/07/04 05:36:54;;;;;;;;;31.00;30.25;;;;;27.71;53.74;99388.84;5088473;28;8990;-76
2022/07/04 05:39:23;;;;;;;;;34.00;31.25;;;;;27.91;53.37;99396.28;5070401;28;8860;-76
2022/07/04 05:41:51;;;;;;;;;38.25;34.00;;;;;27.58;53.92;99403.16;5089593;28;8855;-74
2022/07/04 05:44:20;;;;;;;;;31.25;30.25;;;;;27.33;55.31;99416.59;5089472;28;8850;-75
2022/07/04 05:46:48;;;;;;;;;36.50;31.50;;;;;27.47;55.45;99410.22;5089014;28;8858;-73
2022/07/04 05:49:17;;;;;;;;;29.00;27.50;;;;;27.77;54.73;99410.69;5086985;28;8863;-72
2022/07/04 05:51:47;;;;;;;;;30.50;28.25;;;;;27.49;53.71;99416.38;5088683;28;8824;-72
2022/07/04 05:54:15;;;;;;;;;28.75;27.00;;;;;27.51;54.19;99417.94;5086536;28;8844;-72
2022/07/04 05:56:44;;;;;;;;;29.25;27.50;;;;;27.35;55.31;99422.69;5088848;28;9002;-73
2022/07/04 05:59:13;;;;;;;;;30.00;30.00;;;;;27.08;56.37;99426.34;5086612;28;8843;-75
2022/07/04 06:01:41;;;;;;;;;33.00;30.00;;;;;27.10;56.13;99429.78;5070077;28;8889;-73
2022/07/04 06:04:10;;;;;;;;;35.75;32.00;;;;;27.47;55.29;99428.97;5089019;28;8832;-72
2022/07/04 06:06:38;;;;;;;;;30.25;30.00;;;;;27.77;54.42;99432.13;5087928;28;8951;-72
2022/07/04 06:09:08;;;;;;;;;35.50;32.00;;;;;27.76;55.41;99432.22;5088824;28;9006;-76
2022/07/04 06:11:42;;;;;;;;;31.75;27.75;;;;;27.84;55.09;99431.66;5088946;28;8840;-75
2022/07/04 06:14:11;;;;;;;;;30.75;26.00;;;;;27.97;54.90;99433.34;5086956;28;8844;-73
2022/07/04 06:16:39;;;;;;;;;30.25;30.25;;;;;27.97;54.90;99425.28;5088350;28;8855;-73
2022/07/04 06:19:08;;;;;;;;;32.75;30.00;;;;;27.75;55.96;99434.06;5091491;28;8836;-73
2022/07/04 06:21:37;;;;;;;;;35.25;32.00;;;;;27.98;54.63;99440.41;5125450;27;8839;-74
2022/07/04 06:24:05;;;;;;;;;24.00;24.00;;;;;28.12;53.11;99434.00;5092958;28;9684;-74
2022/07/04 06:26:36;;;;;;;;;27.00;25.25;;;;;28.42;52.07;99438.03;5093095;28;8844;-74
2022/07/04 06:29:04;;;;;;;;;25.50;24.50;;;;;28.33;52.23;99438.72;5092933;28;8977;-74
2022/07/04 06:31:33;;;;;;;;;24.75;24.50;;;;;27.97;53.32;99444.06;5092292;28;8916;-75
2022/07/04 06:36:47;;;;;;;;;26.20;24.80;;;;;28.74;51.26;99430.19;5092410;28;8902;-72
2022/07/04 06:39:16;;;;;;;;;30.00;28.00;;;;;28.88;50.36;99433.63;5090884;28;8840;-72
2022/07/04 06:41:45;;;;;;;;;21.75;20.75;;;;;28.93;50.39;99431.44;5092412;28;8890;-73
2022/07/04 06:44:14;;;;;;;;;31.25;28.75;;;;;28.75;50.30;99426.56;5092010;28;8871;-73
2022/07/04 06:46:44;;;;;;;;;31.00;28.20;;;;;28.67;50.99;99423.59;5090720;28;8832;-72
2022/07/04 06:49:12;;;;;;;;;23.25;23.00;;;;;28.94;50.66;99417.91;5073474;28;8912;-73
2022/07/04 06:51:41;;;;;;;;;26.25;25.00;;;;;28.67;51.66;99428.97;5092080;28;9005;-76
2022/07/04 06:54:09;;;;;;;;;28.00;26.25;;;;;29.00;50.27;99421.06;5090393;28;8876;-72
2022/07/04 06:56:38;;;;;;;;;24.75;23.75;;;;;29.03;49.97;99416.31;5092247;28;8925;-74
2022/07/04 06:59:08;;;;;;;;;24.40;24.40;;;;;29.23;50.06;99416.59;5090576;28;8851;-72
2022/07/04 07:01:37;;;;;;;;;28.80;27.00;;;;;29.29;47.57;99413.41;5091721;28;8974;-74
2022/07/04 07:04:05;;;;;;;;;28.40;24.80;;;;;29.25;46.99;99404.75;5092373;28;8850;-75
2022/07/04 07:06:34;;;;;;;;;23.60;23.00;;;;;29.13;47.32;99411.09;5090484;28;8860;-74
2022/07/04 07:09:02;;;;;;;;;26.25;25.00;;;;;29.05;48.09;99402.75;5091921;28;8844;-74
2022/07/04 07:11:31;;;;;;;;;25.80;25.00;;;;;28.82;49.27;99401.91;5091676;28;8851;-74
2022/07/04 07:14:00;;;;;;;;;25.25;24.75;;;;;28.64;49.72;99407.75;5089672;28;9549;-74
2022/07/04 07:16:30;;;;;;;;;26.40;26.00;;;;;28.65;50.24;99408.59;5075390;28;8824;-74
2022/07/04 07:18:58;;;;;;;;;29.00;26.60;;;;;28.51;50.33;99398.91;5104261;28;8856;-75
2022/07/04 07:21:27;;;;;;;;;27.50;27.25;;;;;28.76;49.68;99389.81;5092744;28;8998;-77
2022/07/04 07:23:55;;;;;;;;;25.00;23.00;;;;;28.90;48.76;99394.97;5092294;28;8836;-76
2022/07/04 07:26:24;;;;;;;;;28.00;28.00;;;;;28.65;49.73;99395.19;5092017;28;9633;-75
2022/07/04 07:28:52;;;;;;;;;29.50;29.25;;;;;28.77;50.11;99389.72;5088858;28;8864;-73
2022/07/04 07:31:21;;;;;;;;;17.25;17.25;;;;;28.82;49.22;99381.28;5072061;28;8928;-74
2022/07/04 07:33:51;;;;;;;;;27.50;26.00;;;;;29.00;48.92;99389.72;5091410;28;8928;-74
2022/07/04 07:36:20;;;;;;;;;27.50;25.50;;;;;29.13;49.32;99385.09;5091613;28;8872;-78
2022/07/04 07:38:48;;;;;;;;;30.00;28.00;;;;;29.28;49.11;99379.44;5039831;28;9657;-75
2022/07/04 07:41:17;;;;;;;;;24.25;24.00;;;;;29.31;48.98;99382.75;5091552;28;8847;-75
2022/07/04 07:43:45;;;;;;;;;24.50;24.50;;;;;29.25;48.28;99382.41;5090946;28;8844;-76
2022/07/04 07:46:14;;;;;;;;;28.20;26.40;;;;;29.61;47.88;99378.53;5091234;28;8847;-75
2022/07/04 07:48:42;;;;;;;;;30.00;26.50;;;;;29.51;47.50;99380.28;5090017;28;8861;-73
2022/07/04 07:51:13;;;;;;;;;24.60;24.00;;;;;29.13;47.92;99384.22;5090965;28;8860;-76
2022/07/04 07:53:42;;;;;;;;;28.50;28.00;;;;;29.27;48.19;99386.66;5091322;28;8835;-76
2022/07/04 07:56:31;;;;;;;;;26.80;26.80;;;;;29.37;47.80;99380.56;5090937;28;9821;-75
2022/07/04 07:59:00;;;;;;;;;27.75;26.75;;;;;29.34;47.92;99385.19;5089551;28;8820;-74
2022/07/04 08:01:29;;;;;;;;;27.00;25.50;;;;;29.50;47.01;99383.94;5055623;28;8855;-74
2022/07/04 08:06:51;;;;;;;;;25.00;25.00;;;;;30.18;45.45;99378.34;5090610;28;8839;-73
2022/07/04 08:09:39;;;;;;;;;29.25;28.25;;;;;29.87;45.75;99384.47;5089667;28;8852;-78
2022/07/04 08:12:09;;;;;;;;;28.25;25.50;;;;;30.12;45.20;99380.56;5090525;28;9438;-73
2022/07/04 08:14:37;;;;;;;;;25.25;24.00;;;;;30.34;45.05;99386.84;5071580;28;8886;-73
2022/07/04 08:17:06;;;;;;;;;32.75;30.50;;;;;30.77;43.77;99377.72;5089692;28;8847;-74
2022/07/04 08:19:34;;;;;;;;;28.25;28.25;;;;;30.62;43.41;99379.06;5090333;28;8870;-75
2022/07/04 08:22:05;;;;;;;;;35.25;29.00;;;;;30.96;43.18;99387.75;5090649;28;8879;-77
2022/07/04 08:24:43;;;;;;;;;27.25;24.75;;;;;30.87;43.00;99381.34;5090240;28;9593;-76
2022/07/04 08:27:12;;;;;;;;;29.25;28.75;;;;;30.68;43.63;99389.28;5122965;27;8872;-73
2022/07/04 08:29:41;;;;;;;;;27.75;27.25;;;;;31.23;42.90;99391.69;5071746;28;8890;-75
2022/07/04 08:32:10;;;;;;;;;27.25;25.50;;;;;31.72;42.28;99386.44;5089767;28;8839;-72
2022/07/04 08:34:39;;;;;;;;;30.67;29.67;;;;;31.52;42.09;99390.97;5090145;28;9021;-76
2022/07/04 08:37:09;;;;;;;;;33.25;30.25;;;;;31.65;41.69;99394.25;5089869;28;9616;-73
2022/07/04 08:39:38;;;;;;;;;31.25;30.00;;;;;31.93;41.00;99391.69;5090401;28;8812;-73
2022/07/04 08:42:10;;;;;;;;;33.75;31.00;;;;;32.15;40.50;99401.38;5089829;28;8909;-77
2022/07/04 08:44:41;;;;;;;;;32.75;30.00;;;;;32.12;40.30;99402.53;5088762;28;8851;-75
2022/07/04 08:47:11;;;;;;;;;28.75;27.50;;;;;31.99;40.22;99394.69;5090141;28;8867;-75
2022/07/04 08:49:52;;;;;;;;;32.25;30.00;;;;;32.15;40.67;99388.75;5104559;28;8811;-76
2022/07/04 08:52:35;;;;;;;;;28.50;28.00;;;;;32.52;40.27;99392.53;5089660;28;8882;-73
2022/07/04 09:00:39;;;;;;;;;32.50;29.50;;;;;32.60;38.70;99393.53;5073716;28;8827;-72
2022/07/04 09:03:08;;;;;;;;;29.50;29.25;;;;;32.96;39.23;99391.00;5122806;27;8855;-71
2022/07/04 09:05:38;;;;;;;;;27.25;26.00;;;;;33.34;38.39;99382.88;5090134;28;8958;-73
2022/07/04 09:08:08;;;;;;;;;27.25;27.25;;;;;33.62;38.51;99389.13;5089957;28;8836;-73
2022/07/04 09:10:37;;;;;;;;;29.25;25.50;;;;;33.93;38.30;99381.50;5088246;28;8967;-72
2022/07/04 09:13:08;;;;;;;;;32.75;31.25;;;;;33.86;37.07;99377.72;5053587;28;8882;-72
2022/07/04 09:15:40;;;;;;;;;24.50;23.50;;;;;34.25;37.49;99382.81;5089011;28;8863;-73
2022/07/04 09:18:21;;;;;;;;;24.25;24.00;;;;;34.54;37.02;99379.81;5089423;28;8861;-72
2022/07/04 09:20:51;;;;;;;;;32.50;28.50;;;;;34.53;36.52;99385.38;5089461;28;8840;-73
2022/07/04 09:23:22;;;;;;;;;29.75;28.50;;;;;34.70;36.36;99376.38;5088894;28;8875;-73
2022/07/04 09:26:07;;;;;;;;;29.25;28.25;;;;;34.93;35.04;99381.25;5089100;28;8851;-73
2022/07/04 09:28:37;;;;;;;;;22.50;21.75;;;;;35.05;34.56;99390.78;5086889;28;8831;-72
2022/07/04 09:31:15;;;;;;;;;25.25;23.00;;;;;35.10;34.47;99380.28;5088763;28;8848;-74
2022/07/04 09:33:51;;;;;;;;;24.00;23.75;;;;;35.13;34.06;99376.44;5088979;28;8860;-74
2022/07/04 09:36:21;;;;;;;;;25.00;24.75;;;;;35.16;34.29;99389.63;5087339;28;8968;-73
2022/07/04 09:39:12;;;;;;;;;22.50;22.25;;;;;35.22;33.19;99388.16;5088850;28;8851;-73
2022/07/04 09:41:58;;;;;;;;;27.50;25.25;;;;;34.86;33.69;99391.03;5088849;28;9002;-72
2022/07/04 09:44:30;;;;;;;;;25.50;22.75;;;;;35.11;33.92;99392.00;5087332;28;8948;-73
2022/07/04 09:46:58;;;;;;;;;25.75;24.75;;;;;35.19;33.81;99381.22;5089058;28;8855;-72
2022/07/04 09:49:27;;;;;;;;;24.50;24.00;;;;;34.84;34.36;99385.78;5089089;28;8962;-72
2022/07/04 09:51:56;;;;;;;;;25.00;25.00;;;;;34.32;34.88;99383.03;5088449;28;8855;-74
2022/07/04 09:54:28;;;;;;;;;23.50;23.50;;;;;34.30;35.35;99375.06;5087079;28;8939;-73
2022/07/04 09:56:59;;;;;;;;;25.25;24.00;;;;;34.18;35.86;99371.78;5088498;28;8916;-72
2022/07/04 09:59:30;;;;;;;;;24.00;22.75;;;;;34.53;35.39;99380.81;5087331;28;8868;-74
2022/07/04 10:02:08;;;;;;;;;23.75;22.25;;;;;34.41;35.78;99365.84;5089110;28;8827;-73
2022/07/04 10:04:44;;;;;;;;;23.00;23.00;;;;;34.74;35.04;99371.50;5088902;28;8935;-72
2022/07/04 10:07:31;;;;;;;;;20.25;18.25;;;;;34.80;34.36;99354.56;5087408;28;8932;-74
2022/07/04 10:10:01;;;;;;;;;23.00;23.00;;;;;34.96;34.01;99359.25;5088701;28;8840;-72
2022/07/04 10:12:29;;;;;;;;;27.50;25.75;;;;;35.02;33.88;99361.28;5088668;28;9006;-71
2022/07/04 10:14:58;;;;;;;;;22.00;21.00;;;;;34.97;33.52;99358.22;5053092;28;8840;-74
2022/07/04 10:17:27;;;;;;;;;29.50;27.50;;;;;34.74;33.92;99364.19;5088583;28;8878;-72
2022/07/04 10:19:57;;;;;;;;;24.00;22.75;;;;;34.97;32.68;99352.78;5088587;28;8855;-74
2022/07/04 10:22:26;;;;;;;;;22.25;22.00;;;;;34.96;31.73;99353.81;5088293;28;8974;-74
2022/07/04 10:24:54;;;;;;;;;24.50;23.00;;;;;34.88;32.13;99335.66;5087059;28;8945;-72
2022/07/04 10:27:25;;;;;;;;;23.25;21.75;;;;;34.99;32.67;99342.63;5102894;28;8840;-72
2022/07/04 10:29:54;;;;;;;;;26.50;24.50;;;;;35.17;32.11;99345.25;5088534;28;9617;-74
2022/07/04 10:32:23;;;;;;;;;23.50;22.00;;;;;35.34;31.87;99340.78;5088512;28;9570;-72
2022/07/04 10:34:52;;;;;;;;;20.50;20.00;;;;;35.47;32.53;99343.84;5088357;28;8870;-72
2022/07/04 10:37:20;;;;;;;;;24.25;22.25;;;;;35.40;32.27;99336.53;5088133;28;9625;-73
2022/07/04 10:39:51;;;;;;;;;20.25;20.00;;;;;35.55;32.74;99336.75;5087505;28;9419;-75
2022/07/04 10:42:26;;;;;;;;;26.00;25.50;;;;;35.66;31.60;99331.00;5121188;28;8863;-75
2022/07/04 10:45:01;;;;;;;;;24.50;23.75;;;;;35.87;31.68;99328.66;5088390;28;8848;-73
2022/07/04 10:47:30;;;;;;;;;23.00;22.50;;;;;35.48;31.08;99325.69;5088579;28;8936;-73
2022/07/04 10:49:59;;;;;;;;;24.75;23.50;;;;;35.50;31.67;99326.38;5088296;28;8832;-74
2022/07/04 10:52:27;;;;;;;;;22.75;22.75;;;;;35.75;32.00;99316.47;5088513;28;9565;-75
2022/07/04 10:55:11;;;;;;;;;27.50;25.50;;;;;35.69;31.98;99317.97;5089834;28;8851;-72
2022/07/04 10:57:41;;;;;;;;;22.25;22.25;;;;;35.62;31.49;99316.09;5089023;28;8859;-72
2022/07/04 11:00:12;;;;;;;;;24.25;24.25;;;;;35.95;31.24;99314.22;5088655;28;8878;-73
2022/07/04 11:02:41;;;;;;;;;21.50;19.75;;;;;36.19;30.03;99323.44;5088414;28;8859;-73
2022/07/04 11:05:11;;;;;;;;;22.50;21.00;;;;;36.29;29.37;99310.50;5091194;28;8940;-75
2022/07/04 11:08:00;;;;;;;;;19.75;18.75;;;;;36.55;28.42;99310.25;5091905;28;8979;-71
2022/07/04 11:10:34;;;;;;;;;29.50;27.50;;;;;36.78;28.56;99307.66;5088597;28;8830;-71
2022/07/04 11:13:15;;;;;;;;;17.50;17.50;;;;;36.60;27.57;99309.72;5088794;28;8862;-72
2022/07/04 11:16:02;;;;;;;;;19.25;19.25;;;;;36.95;27.71;99313.03;5024141;28;8850;-74
2022/07/04 11:18:39;;;;;;;;;19.25;18.00;;;;;37.03;27.23;99310.28;5088983;28;8842;-71
2022/07/04 11:21:25;;;;;;;;;19.50;19.50;;;;;37.22;27.55;99299.00;5089097;28;8826;-73
2022/07/04 11:23:55;;;;;;;;;22.75;21.25;;;;;37.25;27.74;99306.78;5088984;28;8853;-72
2022/07/04 11:26:25;;;;;;;;;16.67;16.67;;;;;37.53;26.85;99298.09;5088862;28;8924;-71
2022/07/04 11:28:55;;;;;;;;;20.75;20.75;;;;;37.81;26.93;99292.16;5105644;28;8858;-73
2022/07/04 11:31:37;;;;;;;;;22.25;20.75;;;;;38.11;27.11;99287.63;5088740;28;9635;-72
2022/07/04 11:34:06;;;;;;;;;20.00;20.00;;;;;38.10;27.05;99275.03;5088201;28;8850;-70
2022/07/04 11:36:35;;;;;;;;;24.00;22.75;;;;;38.17;26.77;99280.59;5088153;28;8880;-73
2022/07/04 11:39:06;;;;;;;;;21.50;20.50;;;;;38.26;26.58;99284.91;5088877;28;8858;-72
2022/07/04 11:47:15;;;;;;;;;19.25;18.25;;;;;37.82;26.56;99266.59;5089420;28;9573;-73
2022/07/04 11:49:47;;;;;;;;;21.75;20.50;;;;;38.10;26.24;99263.31;5090510;28;8859;-73
2022/07/04 11:52:19;;;;;;;;;17.50;17.00;;;;;38.35;25.62;99266.59;5091000;28;8855;-73
2022/07/04 11:55:04;;;;;;;;;16.75;16.75;;;;;38.68;25.28;99268.97;5090885;28;8843;-72
2022/07/04 11:57:35;;;;;;;;;19.25;18.25;;;;;38.91;24.43;99264.25;5071587;28;8840;-72
2022/07/04 12:00:08;;;;;;;;;17.25;17.00;;;;;39.03;24.74;99274.69;5090678;28;8855;-71
2022/07/04 12:02:44;;;;;;;;;23.25;22.75;;;;;39.31;24.23;99266.59;5090820;28;8867;-72